createdAt,value
2016-10-25T00:01:08.239Z,0
2016-10-25T00:02:19.014Z,0
2016-10-25T00:03:29.859Z,0
2016-10-25T00:04:40.643Z,0
2016-10-25T00:05:51.353Z,0
2016-10-25T00:07:02.238Z,0
2016-10-25T00:08:13.047Z,0
2016-10-25T00:09:23.893Z,0
2016-10-25T00:10:34.715Z,0
2016-10-25T00:11:45.515Z,0
2016-10-25T00:12:56.281Z,0
2016-10-25T00:14:07.053Z,0
2016-10-25T00:15:17.745Z,0
2016-10-25T00:16:28.623Z,0
2016-10-25T00:17:39.384Z,0
2016-10-25T00:18:50.185Z,0
2016-10-25T00:20:00.946Z,0
2016-10-25T00:21:11.764Z,0
2016-10-25T00:22:22.511Z,0
2016-10-25T00:23:33.319Z,0
2016-10-25T00:24:44.156Z,0
2016-10-25T00:25:55.002Z,0
2016-10-25T00:27:05.811Z,0
2016-10-25T00:28:16.676Z,0
2016-10-25T00:29:27.498Z,0
2016-10-25T00:30:38.363Z,0
2016-10-25T00:31:49.806Z,0
2016-10-25T00:33:00.602Z,0
2016-10-25T00:34:11.356Z,0
2016-10-25T00:35:22.092Z,0
2016-10-25T00:36:32.936Z,0
2016-10-25T00:37:43.679Z,0
2016-10-25T00:38:55.005Z,0
2016-10-25T00:40:05.758Z,0
2016-10-25T00:41:16.546Z,0
2016-10-25T00:42:27.255Z,0
2016-10-25T00:43:38.100Z,0
2016-10-25T00:44:48.894Z,0
2016-10-25T00:45:59.700Z,0
2016-10-25T00:47:10.517Z,0
2016-10-25T00:48:21.355Z,0
2016-10-25T00:49:32.166Z,0
2016-10-25T00:50:43.001Z,0
2016-10-25T00:51:54.022Z,0
2016-10-25T00:53:04.759Z,0
2016-10-25T00:54:15.533Z,0
2016-10-25T00:55:26.262Z,0
2016-10-25T00:56:37.138Z,0
2016-10-25T00:57:47.872Z,0
2016-10-25T00:58:58.705Z,0
2016-10-25T01:00:09.480Z,0
2016-10-25T01:01:20.370Z,0
2016-10-25T01:02:31.640Z,0
2016-10-25T01:03:42.406Z,0
2016-10-25T01:04:53.200Z,0
2016-10-25T01:06:03.896Z,0
2016-10-25T01:07:15.242Z,0
2016-10-25T01:08:26.063Z,0
2016-10-25T01:09:36.875Z,0
2016-10-25T01:10:47.742Z,0
2016-10-25T01:11:58.615Z,0
2016-10-25T01:13:09.397Z,0
2016-10-25T01:14:20.150Z,0
2016-10-25T01:15:30.929Z,0
2016-10-25T01:16:41.865Z,0
2016-10-25T01:17:52.676Z,0
2016-10-25T01:19:03.510Z,0
2016-10-25T01:20:14.322Z,0
2016-10-25T01:21:25.127Z,0
2016-10-25T01:22:36.016Z,0
2016-10-25T01:23:46.864Z,0
2016-10-25T01:24:57.614Z,0
2016-10-25T01:26:08.417Z,0
2016-10-25T01:27:19.230Z,0
2016-10-25T01:28:30.111Z,0
2016-10-25T01:29:40.946Z,0
2016-10-25T01:30:51.848Z,0
2016-10-25T01:32:02.635Z,0
2016-10-25T01:33:13.418Z,0
2016-10-25T01:34:24.203Z,0
2016-10-25T01:35:34.973Z,0
2016-10-25T01:36:45.799Z,0
2016-10-25T01:37:56.561Z,0
2016-10-25T01:39:07.348Z,0
2016-10-25T01:40:18.690Z,0
2016-10-25T01:41:29.483Z,0
2016-10-25T01:42:40.246Z,0
2016-10-25T01:43:51.120Z,0
2016-10-25T01:45:01.957Z,0
2016-10-25T01:46:12.873Z,0
2016-10-25T01:47:24.174Z,0
2016-10-25T01:48:34.941Z,0
2016-10-25T01:49:45.739Z,0
2016-10-25T01:50:56.532Z,0
2016-10-25T01:52:07.799Z,0
2016-10-25T01:53:18.563Z,0
2016-10-25T01:54:29.333Z,0
2016-10-25T01:55:40.187Z,0
2016-10-25T01:56:50.980Z,0
2016-10-25T01:58:01.749Z,0
2016-10-25T01:59:12.520Z,0
2016-10-25T02:00:23.308Z,0
2016-10-25T02:01:34.206Z,0
2016-10-25T02:02:44.950Z,0
2016-10-25T02:03:55.768Z,0
2016-10-25T02:05:07.038Z,0
2016-10-25T02:06:17.817Z,0
2016-10-25T02:07:28.668Z,0
2016-10-25T02:08:39.541Z,0
2016-10-25T02:09:50.354Z,0
2016-10-25T02:11:01.264Z,0
2016-10-25T02:12:12.070Z,0
2016-10-25T02:13:22.969Z,0
2016-10-25T02:14:34.303Z,0
2016-10-25T02:15:45.038Z,0
2016-10-25T02:16:55.890Z,0
2016-10-25T02:18:06.676Z,0
2016-10-25T02:19:17.838Z,0
2016-10-25T02:20:28.632Z,0
2016-10-25T02:21:39.509Z,0
2016-10-25T02:22:50.382Z,0
2016-10-25T02:24:01.192Z,0
2016-10-25T02:25:12.018Z,0
2016-10-25T02:26:22.865Z,0
2016-10-25T02:27:33.906Z,0
2016-10-25T02:28:44.734Z,0
2016-10-25T02:29:55.610Z,0
2016-10-25T02:31:06.411Z,0
2016-10-25T02:32:17.203Z,0
2016-10-25T02:33:28.030Z,0
2016-10-25T02:34:38.914Z,0
2016-10-25T02:35:49.762Z,0
2016-10-25T02:37:00.621Z,0
2016-10-25T02:38:11.379Z,0
2016-10-25T02:39:22.235Z,0
2016-10-25T02:40:33.524Z,0
2016-10-25T02:41:44.307Z,0
2016-10-25T02:42:55.173Z,0
2016-10-25T02:44:06.003Z,0
2016-10-25T02:45:16.801Z,0
2016-10-25T02:46:27.619Z,0
2016-10-25T02:47:38.408Z,0
2016-10-25T02:48:49.840Z,0
2016-10-25T02:50:00.615Z,0
2016-10-25T02:51:11.420Z,0
2016-10-25T02:52:22.233Z,0
2016-10-25T02:53:33.074Z,0
2016-10-25T02:54:44.059Z,0
2016-10-25T02:55:54.881Z,0
2016-10-25T02:57:05.777Z,0
2016-10-25T02:58:16.630Z,0
2016-10-25T02:59:27.414Z,0
2016-10-25T03:00:38.225Z,0
2016-10-25T03:01:49.080Z,0
2016-10-25T03:02:59.930Z,0
2016-10-25T03:04:10.674Z,0
2016-10-25T03:05:21.545Z,0
2016-10-25T03:06:32.359Z,0
2016-10-25T03:07:43.132Z,0
2016-10-25T03:08:53.919Z,0
2016-10-25T03:10:04.661Z,0
2016-10-25T03:11:15.468Z,0
2016-10-25T03:12:26.299Z,0
2016-10-25T03:13:37.042Z,0
2016-10-25T03:14:47.790Z,0
2016-10-25T03:15:58.597Z,0
2016-10-25T03:17:09.369Z,0
2016-10-25T03:18:20.158Z,0
2016-10-25T03:19:31.002Z,0
2016-10-25T03:20:41.808Z,0
2016-10-25T03:21:52.661Z,0
2016-10-25T03:23:03.499Z,0
2016-10-25T03:24:14.329Z,0
2016-10-25T03:25:25.617Z,0
2016-10-25T03:26:37.139Z,0
2016-10-25T03:27:47.901Z,0
2016-10-25T03:28:58.691Z,0
2016-10-25T03:30:09.494Z,0
2016-10-25T03:31:20.308Z,0
2016-10-25T03:32:31.148Z,0
2016-10-25T03:33:41.951Z,0
2016-10-25T03:34:52.814Z,0
2016-10-25T03:36:03.652Z,0
2016-10-25T03:37:14.419Z,0
2016-10-25T03:38:25.268Z,0
2016-10-25T03:39:36.165Z,0
2016-10-25T03:40:46.938Z,0
2016-10-25T03:41:57.796Z,0
2016-10-25T03:43:08.588Z,0
2016-10-25T03:44:19.357Z,0
2016-10-25T03:45:30.117Z,0
2016-10-25T03:46:40.840Z,0
2016-10-25T03:47:51.610Z,0
2016-10-25T03:49:02.377Z,0
2016-10-25T03:50:13.157Z,0
2016-10-25T03:51:24.015Z,0
2016-10-25T03:52:34.794Z,0
2016-10-25T03:53:45.526Z,0
2016-10-25T03:54:56.311Z,0
2016-10-25T03:56:07.166Z,0
2016-10-25T03:57:17.981Z,0
2016-10-25T03:58:29.340Z,0
2016-10-25T03:59:40.608Z,0
2016-10-25T04:00:51.439Z,0
2016-10-25T04:02:02.272Z,0
2016-10-25T04:03:13.033Z,0
2016-10-25T04:04:24.392Z,0
2016-10-25T04:05:35.218Z,0
2016-10-25T04:06:46.006Z,0
2016-10-25T04:07:56.795Z,0
2016-10-25T04:09:07.612Z,0
2016-10-25T04:10:18.350Z,0
2016-10-25T04:11:29.152Z,0
2016-10-25T04:12:39.918Z,0
2016-10-25T04:13:50.757Z,0
2016-10-25T04:15:01.643Z,0
2016-10-25T04:16:12.492Z,0
2016-10-25T04:17:23.853Z,0
2016-10-25T04:18:34.633Z,0
2016-10-25T04:19:45.417Z,0
2016-10-25T04:20:56.234Z,0
2016-10-25T04:22:07.527Z,0
2016-10-25T04:23:18.413Z,0
2016-10-25T04:24:29.203Z,0
2016-10-25T04:25:40.028Z,0
2016-10-25T04:26:51.256Z,0
2016-10-25T04:28:02.023Z,0
2016-10-25T04:29:12.777Z,0
2016-10-25T04:30:23.640Z,0
2016-10-25T04:31:34.396Z,0
2016-10-25T04:32:45.224Z,0
2016-10-25T04:33:56.067Z,0
2016-10-25T04:35:06.813Z,0
2016-10-25T04:36:17.535Z,0
2016-10-25T04:37:28.988Z,0
2016-10-25T04:38:39.759Z,0
2016-10-25T04:39:50.461Z,0
2016-10-25T04:41:01.195Z,0
2016-10-25T04:42:11.914Z,0
2016-10-25T04:43:22.618Z,0
2016-10-25T04:44:33.328Z,0
2016-10-25T04:45:44.021Z,0
2016-10-25T04:46:55.241Z,0
2016-10-25T04:48:05.927Z,0
2016-10-25T04:49:16.641Z,0
2016-10-25T04:50:27.373Z,0
2016-10-25T04:51:38.089Z,0
2016-10-25T04:52:48.792Z,0
2016-10-25T04:53:59.616Z,0
2016-10-25T04:55:11.051Z,0
2016-10-25T04:56:21.748Z,0
2016-10-25T04:57:32.451Z,0
2016-10-25T04:58:43.193Z,0
2016-10-25T04:59:53.926Z,0
2016-10-25T05:01:04.606Z,0
2016-10-25T05:02:15.315Z,0
2016-10-25T05:03:26.031Z,0
2016-10-25T05:04:36.801Z,0
2016-10-25T05:05:47.586Z,0
2016-10-25T05:06:58.281Z,0
2016-10-25T05:08:08.976Z,0
2016-10-25T05:09:19.701Z,0
2016-10-25T05:10:30.398Z,0
2016-10-25T05:11:41.122Z,0
2016-10-25T05:12:51.844Z,0
2016-10-25T05:14:02.639Z,0
2016-10-25T05:15:13.383Z,0
2016-10-25T05:16:24.130Z,0
2016-10-25T05:17:34.809Z,0
2016-10-25T05:18:46.079Z,0
2016-10-25T05:19:56.768Z,0
2016-10-25T05:21:07.467Z,0
2016-10-25T05:22:18.558Z,0
2016-10-25T05:23:29.272Z,0
2016-10-25T05:24:39.976Z,0
2016-10-25T05:25:50.703Z,0
2016-10-25T05:27:01.422Z,0
2016-10-25T05:28:12.135Z,0
2016-10-25T05:29:22.863Z,0
2016-10-25T05:30:33.602Z,0
2016-10-25T05:31:44.300Z,0
2016-10-25T05:32:55.021Z,0
2016-10-25T05:34:05.738Z,0
2016-10-25T05:35:16.772Z,0
2016-10-25T05:36:27.529Z,0
2016-10-25T05:37:38.281Z,0
2016-10-25T05:38:48.983Z,0
2016-10-25T05:39:59.685Z,0
2016-10-25T05:41:11.367Z,0
2016-10-25T05:42:22.110Z,0
2016-10-25T05:43:32.815Z,0
2016-10-25T05:44:43.529Z,0
2016-10-25T05:45:54.230Z,0
2016-10-25T05:47:04.924Z,0
2016-10-25T05:48:15.650Z,0
2016-10-25T05:49:26.398Z,0
2016-10-25T05:50:37.090Z,0
2016-10-25T05:51:47.807Z,0
2016-10-25T05:52:58.536Z,0
2016-10-25T05:54:09.244Z,0
2016-10-25T05:55:19.911Z,0
2016-10-25T05:56:30.610Z,0
2016-10-25T05:57:41.301Z,0
2016-10-25T05:58:52.497Z,0
2016-10-25T06:00:03.739Z,0
2016-10-25T06:01:14.967Z,0
2016-10-25T06:02:25.661Z,0
2016-10-25T06:03:36.361Z,0
2016-10-25T06:04:47.070Z,0
2016-10-25T06:05:57.785Z,0
2016-10-25T06:07:08.518Z,0
2016-10-25T06:08:19.739Z,0
2016-10-25T06:09:30.467Z,0
2016-10-25T06:10:41.147Z,0
2016-10-25T06:11:52.032Z,0
2016-10-25T06:13:02.766Z,0
2016-10-25T06:14:13.492Z,0
2016-10-25T06:15:24.208Z,0
2016-10-25T06:16:34.912Z,0
2016-10-25T06:17:45.889Z,0
2016-10-25T06:18:56.695Z,0
2016-10-25T06:20:07.497Z,0
2016-10-25T06:21:18.195Z,0
2016-10-25T06:22:28.904Z,0
2016-10-25T06:23:39.602Z,0
2016-10-25T06:24:50.313Z,0
2016-10-25T06:26:01.644Z,0
2016-10-25T06:27:12.397Z,0
2016-10-25T06:28:23.099Z,0
2016-10-25T06:29:33.804Z,0
2016-10-25T06:30:44.504Z,0
2016-10-25T06:31:55.437Z,0
2016-10-25T06:33:06.139Z,0
2016-10-25T06:34:16.922Z,0
2016-10-25T06:35:27.642Z,0
2016-10-25T06:36:38.348Z,0
2016-10-25T06:37:49.061Z,0
2016-10-25T06:38:59.909Z,0
2016-10-25T06:40:10.664Z,0
2016-10-25T06:41:21.479Z,0
2016-10-25T06:42:32.197Z,0
2016-10-25T06:43:42.913Z,0
2016-10-25T06:44:53.641Z,0
2016-10-25T06:46:04.367Z,0
2016-10-25T06:47:15.059Z,0
2016-10-25T06:48:25.780Z,0
2016-10-25T06:49:36.478Z,0
2016-10-25T06:50:47.266Z,0
2016-10-25T06:51:57.966Z,0
2016-10-25T06:53:08.701Z,0
2016-10-25T06:54:19.435Z,0
2016-10-25T06:55:30.210Z,0
2016-10-25T06:56:40.961Z,0
2016-10-25T06:57:51.744Z,0
2016-10-25T06:59:02.463Z,0
2016-10-25T07:00:13.177Z,0
2016-10-25T07:01:23.867Z,0
2016-10-25T07:02:34.569Z,0
2016-10-25T07:03:45.284Z,0
2016-10-25T07:04:56.011Z,0
2016-10-25T07:06:06.688Z,0
2016-10-25T07:07:18.393Z,0
2016-10-25T07:08:29.078Z,0
2016-10-25T07:09:39.801Z,0
2016-10-25T07:10:50.491Z,0
2016-10-25T07:12:02.064Z,0
2016-10-25T07:13:12.794Z,0
2016-10-25T07:14:23.514Z,0
2016-10-25T07:15:34.218Z,0
2016-10-25T07:16:44.936Z,0
2016-10-25T07:17:55.621Z,0
2016-10-25T07:19:06.305Z,0
2016-10-25T07:20:18.028Z,0
2016-10-25T07:21:28.705Z,0
2016-10-25T07:22:39.460Z,0
2016-10-25T07:23:50.198Z,0
2016-10-25T07:25:02.560Z,0
2016-10-25T07:26:13.257Z,0
2016-10-25T07:27:23.977Z,0
2016-10-25T07:28:34.698Z,0
2016-10-25T07:29:45.529Z,0
2016-10-25T07:30:56.315Z,0
2016-10-25T07:32:07.028Z,0
2016-10-25T07:33:17.714Z,0
2016-10-25T07:34:28.421Z,0
2016-10-25T07:35:39.161Z,0
2016-10-25T07:36:50.055Z,0
2016-10-25T07:38:00.749Z,0
2016-10-25T07:39:11.549Z,0
2016-10-25T07:40:22.267Z,0
2016-10-25T07:41:33.805Z,0
2016-10-25T07:42:44.503Z,0
2016-10-25T07:43:55.213Z,0
2016-10-25T07:45:05.954Z,0
2016-10-25T07:46:17.203Z,0
2016-10-25T07:47:27.921Z,0
2016-10-25T07:48:39.174Z,0
2016-10-25T07:49:49.923Z,0
2016-10-25T07:51:00.625Z,0
2016-10-25T07:52:11.885Z,0
2016-10-25T07:53:22.612Z,0
2016-10-25T07:54:33.842Z,0
2016-10-25T07:55:44.880Z,0
2016-10-25T07:56:55.687Z,0
2016-10-25T07:58:06.436Z,0
2016-10-25T07:59:17.125Z,0
2016-10-25T08:00:27.862Z,0
2016-10-25T08:01:38.566Z,0
2016-10-25T08:02:49.398Z,0
2016-10-25T08:04:00.080Z,0
2016-10-25T08:05:10.986Z,0
2016-10-25T08:06:21.797Z,0
2016-10-25T08:07:33.051Z,0
2016-10-25T08:08:43.778Z,0
2016-10-25T08:09:55.032Z,0
2016-10-25T08:11:05.715Z,0
2016-10-25T08:12:16.429Z,0
2016-10-25T08:13:27.959Z,0
2016-10-25T08:14:38.669Z,0
2016-10-25T08:15:49.383Z,0
2016-10-25T08:17:00.059Z,0
2016-10-25T08:18:10.765Z,0
2016-10-25T08:19:21.488Z,0
2016-10-25T08:20:32.226Z,0
2016-10-25T08:21:42.931Z,0
2016-10-25T08:22:53.646Z,0
2016-10-25T08:24:04.880Z,0
2016-10-25T08:25:16.161Z,0
2016-10-25T08:26:26.854Z,0
2016-10-25T08:27:37.602Z,5
2016-10-25T08:28:48.312Z,5
2016-10-25T08:29:59.042Z,5
2016-10-25T08:31:09.786Z,10
2016-10-25T08:32:21.192Z,10
2016-10-25T08:33:31.939Z,10
2016-10-25T08:34:42.631Z,15
2016-10-25T08:35:53.374Z,20
2016-10-25T08:37:04.325Z,20
2016-10-25T08:38:15.038Z,20
2016-10-25T08:39:25.781Z,25
2016-10-25T08:40:36.469Z,30
2016-10-25T08:41:47.191Z,35
2016-10-25T08:42:57.912Z,35
2016-10-25T08:44:08.605Z,35
2016-10-25T08:45:19.306Z,35
2016-10-25T08:46:30.015Z,40
2016-10-25T08:47:40.726Z,45
2016-10-25T08:48:51.430Z,55
2016-10-25T08:50:02.119Z,60
2016-10-25T08:51:12.874Z,65
2016-10-25T08:52:23.630Z,65
2016-10-25T08:53:34.350Z,65
2016-10-25T08:54:45.045Z,70
2016-10-25T08:55:55.769Z,85
2016-10-25T08:57:06.505Z,85
2016-10-25T08:58:17.426Z,90
2016-10-25T08:59:28.812Z,90
2016-10-25T09:00:39.542Z,95
2016-10-25T09:01:50.281Z,95
2016-10-25T09:03:00.996Z,95
2016-10-25T09:04:11.872Z,100
2016-10-25T09:05:22.584Z,105
2016-10-25T09:06:33.304Z,110
2016-10-25T09:07:44.005Z,115
2016-10-25T09:08:54.716Z,120
2016-10-25T09:10:05.419Z,125
2016-10-25T09:11:16.118Z,130
2016-10-25T09:12:26.839Z,130
2016-10-25T09:13:37.684Z,135
2016-10-25T09:14:48.622Z,135
2016-10-25T09:15:59.346Z,150
2016-10-25T09:17:10.049Z,155
2016-10-25T09:18:21.259Z,170
2016-10-25T09:19:32.049Z,175
2016-10-25T09:20:42.779Z,175
2016-10-25T09:21:53.467Z,200
2016-10-25T09:23:04.170Z,215
2016-10-25T09:24:14.882Z,235
2016-10-25T09:25:25.670Z,245
2016-10-25T09:26:37.010Z,255
2016-10-25T09:27:47.792Z,260
2016-10-25T09:28:58.485Z,260
2016-10-25T09:30:09.190Z,265
2016-10-25T09:31:20.015Z,260
2016-10-25T09:32:31.415Z,270
2016-10-25T09:33:42.537Z,270
2016-10-25T09:34:53.770Z,270
2016-10-25T09:36:04.532Z,260
2016-10-25T09:37:15.273Z,240
2016-10-25T09:38:26.524Z,220
2016-10-25T09:39:37.239Z,210
2016-10-25T09:40:47.953Z,205
2016-10-25T09:41:58.664Z,205
2016-10-25T09:43:09.385Z,215
2016-10-25T09:44:20.113Z,225
2016-10-25T09:45:30.834Z,250
2016-10-25T09:46:42.646Z,260
2016-10-25T09:47:53.958Z,260
2016-10-25T09:49:04.903Z,260
2016-10-25T09:50:15.724Z,270
2016-10-25T09:51:26.453Z,265
2016-10-25T09:52:37.181Z,265
2016-10-25T09:53:47.912Z,275
2016-10-25T09:54:58.627Z,280
2016-10-25T09:56:09.334Z,285
2016-10-25T09:57:20.033Z,305
2016-10-25T09:58:30.736Z,310
2016-10-25T09:59:41.440Z,320
2016-10-25T10:00:52.151Z,320
2016-10-25T10:02:03.361Z,335
2016-10-25T10:03:14.083Z,350
2016-10-25T10:04:24.819Z,390
2016-10-25T10:05:35.554Z,430
2016-10-25T10:06:46.285Z,470
2016-10-25T10:07:56.995Z,490
2016-10-25T10:09:07.723Z,485
2016-10-25T10:10:18.445Z,490
2016-10-25T10:11:29.240Z,480
2016-10-25T10:12:39.962Z,485
2016-10-25T10:13:50.691Z,520
2016-10-25T10:15:01.391Z,580
2016-10-25T10:16:12.195Z,620
2016-10-25T10:17:22.916Z,665
2016-10-25T10:18:34.128Z,710
2016-10-25T10:19:44.853Z,735
2016-10-25T10:20:55.552Z,700
2016-10-25T10:22:06.263Z,610
2016-10-25T10:23:17.504Z,710
2016-10-25T10:24:28.206Z,735
2016-10-25T10:25:38.935Z,775
2016-10-25T10:26:49.643Z,830
2016-10-25T10:28:00.342Z,805
2016-10-25T10:29:11.078Z,895
2016-10-25T10:30:21.797Z,915
2016-10-25T10:31:32.526Z,925
2016-10-25T10:32:43.245Z,1025
2016-10-25T10:33:53.940Z,1150
2016-10-25T10:35:04.748Z,1640
2016-10-25T10:36:15.465Z,1360
2016-10-25T10:37:26.220Z,2140
2016-10-25T10:38:36.934Z,2265
2016-10-25T10:39:47.625Z,2345
2016-10-25T10:40:58.338Z,2220
2016-10-25T10:42:09.051Z,1380
2016-10-25T10:43:19.876Z,1155
2016-10-25T10:44:30.595Z,1045
2016-10-25T10:45:41.376Z,970
2016-10-25T10:46:52.082Z,930
2016-10-25T10:48:02.790Z,915
2016-10-25T10:49:13.523Z,940
2016-10-25T10:50:24.281Z,915
2016-10-25T10:51:34.980Z,895
2016-10-25T10:52:45.759Z,900
2016-10-25T10:53:56.573Z,885
2016-10-25T10:55:07.837Z,835
2016-10-25T10:56:19.098Z,820
2016-10-25T10:57:29.802Z,845
2016-10-25T10:58:40.527Z,880
2016-10-25T10:59:51.263Z,930
2016-10-25T11:01:01.969Z,965
2016-10-25T11:02:12.714Z,910
2016-10-25T11:03:23.422Z,840
2016-10-25T11:04:34.122Z,940
2016-10-25T11:05:47.018Z,910
2016-10-25T11:06:57.724Z,790
2016-10-25T11:08:08.482Z,680
2016-10-25T11:09:19.213Z,585
2016-10-25T11:10:29.929Z,515
2016-10-25T11:11:40.619Z,420
2016-10-25T11:12:51.349Z,390
2016-10-25T11:14:02.063Z,375
2016-10-25T11:15:13.326Z,325
2016-10-25T11:16:24.570Z,315
2016-10-25T11:17:35.283Z,345
2016-10-25T11:18:46.009Z,435
2016-10-25T11:19:56.722Z,510
2016-10-25T11:21:07.434Z,580
2016-10-25T11:22:18.239Z,575
2016-10-25T11:23:29.012Z,520
2016-10-25T11:24:41.411Z,515
2016-10-25T11:25:52.979Z,595
2016-10-25T11:27:03.992Z,705
2016-10-25T11:28:15.277Z,680
2016-10-25T11:29:25.972Z,765
2016-10-25T11:30:36.686Z,750
2016-10-25T11:31:47.396Z,685
2016-10-25T11:32:58.239Z,685
2016-10-25T11:34:08.998Z,685
2016-10-25T11:35:19.704Z,605
2016-10-25T11:36:30.429Z,615
2016-10-25T11:37:41.203Z,550
2016-10-25T11:38:51.949Z,565
2016-10-25T11:40:02.654Z,595
2016-10-25T11:41:13.897Z,635
2016-10-25T11:42:24.602Z,650
2016-10-25T11:43:35.877Z,625
2016-10-25T11:44:46.576Z,585
2016-10-25T11:45:57.245Z,595
2016-10-25T11:47:08.041Z,660
2016-10-25T11:48:19.024Z,700
2016-10-25T11:49:29.887Z,725
2016-10-25T11:50:40.608Z,730
2016-10-25T11:51:51.318Z,745
2016-10-25T11:53:02.176Z,785
2016-10-25T11:54:12.889Z,805
2016-10-25T11:55:23.612Z,820
2016-10-25T11:56:34.323Z,840
2016-10-25T11:57:45.036Z,865
2016-10-25T11:58:55.727Z,905
2016-10-25T12:00:06.460Z,935
2016-10-25T12:01:17.173Z,970
2016-10-25T12:02:27.859Z,1005
2016-10-25T12:03:38.566Z,1035
2016-10-25T12:04:49.761Z,1050
2016-10-25T12:06:00.518Z,1050
2016-10-25T12:07:11.227Z,1050
2016-10-25T12:08:21.934Z,1050
2016-10-25T12:09:32.671Z,1050
2016-10-25T12:10:43.398Z,1035
2016-10-25T12:11:54.146Z,1010
2016-10-25T12:13:05.405Z,985
2016-10-25T12:14:16.103Z,950
2016-10-25T12:15:26.832Z,925
2016-10-25T12:16:37.554Z,905
2016-10-25T12:17:48.258Z,880
2016-10-25T12:18:58.963Z,850
2016-10-25T12:20:09.681Z,820
2016-10-25T12:21:20.900Z,795
2016-10-25T12:22:31.607Z,775
2016-10-25T12:23:42.309Z,755
2016-10-25T12:24:53.043Z,755
2016-10-25T12:26:03.766Z,755
2016-10-25T12:27:15.006Z,750
2016-10-25T12:28:25.716Z,740
2016-10-25T12:29:36.426Z,735
2016-10-25T12:30:47.161Z,735
2016-10-25T12:31:58.423Z,740
2016-10-25T12:33:09.133Z,760
2016-10-25T12:34:19.863Z,795
2016-10-25T12:35:30.550Z,840
2016-10-25T12:36:41.321Z,885
2016-10-25T12:37:52.032Z,930
2016-10-25T12:39:02.732Z,980
2016-10-25T12:40:13.452Z,1000
2016-10-25T12:41:24.685Z,1015
2016-10-25T12:42:35.402Z,1025
2016-10-25T12:43:46.102Z,1010
2016-10-25T12:44:56.784Z,960
2016-10-25T12:46:07.501Z,900
2016-10-25T12:47:18.195Z,830
2016-10-25T12:48:28.891Z,765
2016-10-25T12:49:39.635Z,715
2016-10-25T12:50:50.338Z,685
2016-10-25T12:52:01.069Z,655
2016-10-25T12:53:11.798Z,645
2016-10-25T12:54:24.393Z,640
2016-10-25T12:55:35.095Z,655
2016-10-25T12:56:45.835Z,670
2016-10-25T12:57:57.081Z,700
2016-10-25T12:59:08.327Z,745
2016-10-25T13:00:19.047Z,805
2016-10-25T13:01:29.812Z,855
2016-10-25T13:02:40.543Z,900
2016-10-25T13:03:51.277Z,955
2016-10-25T13:05:01.987Z,1010
2016-10-25T13:06:12.701Z,1055
2016-10-25T13:07:23.425Z,1070
2016-10-25T13:08:34.130Z,1075
2016-10-25T13:09:44.849Z,1075
2016-10-25T13:10:55.635Z,1065
2016-10-25T13:12:06.623Z,1070
2016-10-25T13:13:17.333Z,1070
2016-10-25T13:14:28.066Z,1075
2016-10-25T13:15:38.774Z,1095
2016-10-25T13:16:49.481Z,1120
2016-10-25T13:18:00.199Z,1150
2016-10-25T13:19:10.885Z,1160
2016-10-25T13:20:21.579Z,1150
2016-10-25T13:21:32.317Z,1145
2016-10-25T13:22:43.023Z,1135
2016-10-25T13:23:53.780Z,1125
2016-10-25T13:25:05.009Z,1080
2016-10-25T13:26:15.712Z,1050
2016-10-25T13:27:26.409Z,1045
2016-10-25T13:28:37.149Z,1065
2016-10-25T13:29:47.856Z,1100
2016-10-25T13:30:58.562Z,1140
2016-10-25T13:32:09.805Z,1160
2016-10-25T13:33:20.523Z,1160
2016-10-25T13:34:31.240Z,1160
2016-10-25T13:35:42.065Z,915
2016-10-25T13:36:52.786Z,445
2016-10-25T13:38:03.511Z,1100
2016-10-25T13:39:14.269Z,1085
2016-10-25T13:40:25.013Z,1140
2016-10-25T13:41:35.748Z,1150
2016-10-25T13:42:46.521Z,1195
2016-10-25T13:43:57.234Z,1210
2016-10-25T13:45:07.964Z,1225
2016-10-25T13:46:18.650Z,1220
2016-10-25T13:47:29.351Z,1190
2016-10-25T13:48:40.062Z,1160
2016-10-25T13:49:50.769Z,1135
2016-10-25T13:51:01.491Z,1125
2016-10-25T13:52:13.224Z,1115
2016-10-25T13:53:23.923Z,1095
2016-10-25T13:54:34.625Z,1090
2016-10-25T13:55:45.334Z,1100
2016-10-25T13:56:56.103Z,1145
2016-10-25T13:58:07.320Z,1215
2016-10-25T13:59:18.119Z,1305
2016-10-25T14:00:28.826Z,1425
2016-10-25T14:01:39.580Z,1435
2016-10-25T14:02:50.289Z,1400
2016-10-25T14:04:00.997Z,1440
2016-10-25T14:05:11.752Z,1455
2016-10-25T14:06:22.488Z,1520
2016-10-25T14:07:33.225Z,1645
2016-10-25T14:08:43.927Z,1680
2016-10-25T14:09:54.648Z,1760
2016-10-25T14:11:05.438Z,1820
2016-10-25T14:12:16.149Z,1805
2016-10-25T14:13:26.868Z,1905
2016-10-25T14:14:37.592Z,2020
2016-10-25T14:15:48.313Z,2150
2016-10-25T14:16:59.042Z,1955
2016-10-25T14:18:09.747Z,1770
2016-10-25T14:19:20.440Z,1715
2016-10-25T14:20:31.172Z,1630
2016-10-25T14:21:41.940Z,1585
2016-10-25T14:22:52.871Z,1575
2016-10-25T14:24:03.583Z,1595
2016-10-25T14:25:14.288Z,1645
2016-10-25T14:26:25.006Z,1720
2016-10-25T14:27:35.697Z,1900
2016-10-25T14:28:46.438Z,1930
2016-10-25T14:29:57.665Z,1950
2016-10-25T14:31:08.460Z,1950
2016-10-25T14:32:19.194Z,1870
2016-10-25T14:33:29.992Z,1805
2016-10-25T14:34:41.203Z,1900
2016-10-25T14:35:51.979Z,1680
2016-10-25T14:37:02.945Z,1545
2016-10-25T14:38:14.995Z,1420
2016-10-25T14:39:25.725Z,1320
2016-10-25T14:40:36.466Z,1245
2016-10-25T14:41:47.211Z,1195
2016-10-25T14:42:57.921Z,1160
2016-10-25T14:44:08.648Z,1115
2016-10-25T14:45:19.447Z,1075
2016-10-25T14:46:30.214Z,1035
2016-10-25T14:47:40.938Z,995
2016-10-25T14:48:51.655Z,960
2016-10-25T14:50:02.403Z,925
2016-10-25T14:51:13.111Z,890
2016-10-25T14:52:23.835Z,865
2016-10-25T14:53:34.575Z,845
2016-10-25T14:54:45.283Z,850
2016-10-25T14:55:55.982Z,860
2016-10-25T14:57:06.721Z,875
2016-10-25T14:58:17.453Z,875
2016-10-25T14:59:28.173Z,870
2016-10-25T15:00:38.899Z,865
2016-10-25T15:01:49.657Z,835
2016-10-25T15:03:00.418Z,795
2016-10-25T15:04:11.887Z,750
2016-10-25T15:05:22.608Z,720
2016-10-25T15:06:33.335Z,740
2016-10-25T15:07:44.498Z,775
2016-10-25T15:08:55.667Z,830
2016-10-25T15:10:06.833Z,890
2016-10-25T15:11:18.058Z,895
2016-10-25T15:12:29.201Z,865
2016-10-25T15:13:40.348Z,860
2016-10-25T15:14:51.517Z,875
2016-10-25T15:16:02.684Z,905
2016-10-25T15:17:13.825Z,950
2016-10-25T15:18:24.996Z,950
2016-10-25T15:19:36.190Z,955
2016-10-25T15:20:47.351Z,935
2016-10-25T15:21:58.527Z,895
2016-10-25T15:23:09.678Z,845
2016-10-25T15:24:20.848Z,820
2016-10-25T15:25:32.024Z,820
2016-10-25T15:26:43.190Z,835
2016-10-25T15:27:54.347Z,845
2016-10-25T15:29:05.510Z,835
2016-10-25T15:30:16.656Z,815
2016-10-25T15:31:27.820Z,775
2016-10-25T15:32:38.998Z,745
2016-10-25T15:33:50.724Z,685
2016-10-25T15:35:01.874Z,640
2016-10-25T15:36:13.028Z,625
2016-10-25T15:37:24.284Z,650
2016-10-25T15:38:35.524Z,705
2016-10-25T15:39:46.709Z,785
2016-10-25T15:40:57.885Z,875
2016-10-25T15:42:09.044Z,990
2016-10-25T15:43:20.213Z,1100
2016-10-25T15:44:31.386Z,1195
2016-10-25T15:45:42.566Z,1290
2016-10-25T15:46:53.761Z,1365
2016-10-25T15:48:04.905Z,1365
2016-10-25T15:49:16.106Z,1310
2016-10-25T15:50:27.254Z,1260
2016-10-25T15:51:38.395Z,1170
2016-10-25T15:52:50.161Z,1070
2016-10-25T15:54:01.324Z,985
2016-10-25T15:55:12.490Z,915
2016-10-25T15:56:23.656Z,870
2016-10-25T15:57:34.818Z,830
2016-10-25T15:58:45.960Z,805
2016-10-25T15:59:57.144Z,780
2016-10-25T16:01:08.300Z,790
2016-10-25T16:02:19.512Z,840
2016-10-25T16:03:30.702Z,905
2016-10-25T16:04:41.861Z,995
2016-10-25T16:05:53.030Z,1080
2016-10-25T16:07:04.235Z,1130
2016-10-25T16:08:15.397Z,1135
2016-10-25T16:09:26.597Z,1130
2016-10-25T16:10:37.748Z,1145
2016-10-25T16:11:48.945Z,1165
2016-10-25T16:13:00.100Z,1185
2016-10-25T16:14:11.849Z,1195
2016-10-25T16:15:23.021Z,1190
2016-10-25T16:16:34.430Z,1165
2016-10-25T16:17:45.604Z,1130
2016-10-25T16:18:56.816Z,1100
2016-10-25T16:20:07.968Z,1110
2016-10-25T16:21:19.146Z,1145
2016-10-25T16:22:30.307Z,1165
2016-10-25T16:23:41.456Z,1165
2016-10-25T16:24:52.601Z,1145
2016-10-25T16:26:04.293Z,1115
2016-10-25T16:27:16.110Z,1075
2016-10-25T16:28:27.685Z,1035
2016-10-25T16:29:38.909Z,965
2016-10-25T16:30:50.073Z,895
2016-10-25T16:32:01.795Z,835
2016-10-25T16:33:12.956Z,780
2016-10-25T16:34:24.133Z,740
2016-10-25T16:35:35.292Z,710
2016-10-25T16:36:46.445Z,680
2016-10-25T16:37:57.618Z,655
2016-10-25T16:39:08.772Z,640
2016-10-25T16:40:20.773Z,630
2016-10-25T16:41:32.118Z,630
2016-10-25T16:42:43.312Z,640
2016-10-25T16:43:54.494Z,645
2016-10-25T16:45:05.660Z,670
2016-10-25T16:46:16.866Z,690
2016-10-25T16:47:28.069Z,685